createdAt,value
2018-04-24T00:01:22.479Z,68.65
2018-04-24T00:03:50.068Z,69.12
2018-04-24T00:06:17.637Z,68.55
2018-04-24T00:08:45.173Z,69.62
2018-04-24T00:11:12.692Z,69.95
2018-04-24T00:13:40.255Z,69.76
2018-04-24T00:16:07.777Z,68.46
2018-04-24T00:18:35.301Z,68.45
2018-04-24T00:21:03.145Z,69.18
2018-04-24T00:23:30.670Z,69.65
2018-04-24T00:25:58.195Z,68.83
2018-04-24T00:28:25.844Z,68.38
2018-04-24T00:30:53.372Z,69.15
2018-04-24T00:33:21.095Z,68.32
2018-04-24T00:35:48.655Z,68.84
2018-04-24T00:38:16.188Z,68.69
2018-04-24T00:40:43.712Z,68.43
2018-04-24T00:43:11.386Z,68.31
2018-04-24T00:45:38.951Z,68.19
2018-04-24T00:48:06.452Z,69.78
2018-04-24T00:50:34.031Z,70.17
2018-04-24T00:53:01.549Z,70.70
2018-04-24T00:55:29.082Z,70.62
2018-04-24T00:57:56.732Z,70.61
2018-04-24T01:00:24.260Z,69.46
2018-04-24T01:02:52.147Z,70.51
2018-04-24T01:05:19.696Z,69.68
2018-04-24T01:07:47.230Z,70.27
2018-04-24T01:10:15.576Z,69.74
2018-04-24T01:12:43.212Z,69.80
2018-04-24T01:15:10.737Z,70.16
2018-04-24T01:17:38.264Z,68.97
2018-04-24T01:20:05.861Z,69.45
2018-04-24T01:22:34.191Z,69.93
2018-04-24T01:25:01.725Z,69.98
2018-04-24T01:27:29.539Z,68.85
2018-04-24T01:29:57.887Z,68.39
2018-04-24T01:32:25.436Z,69.51
2018-04-24T01:34:53.227Z,69.64
2018-04-24T01:37:21.607Z,69.15
2018-04-24T01:39:49.616Z,68.35
2018-04-24T01:42:17.198Z,69.58
2018-04-24T01:44:44.735Z,69.32
2018-04-24T01:47:12.268Z,70.10
2018-04-24T01:49:39.840Z,69.51
2018-04-24T01:52:07.372Z,69.04
2018-04-24T01:54:34.900Z,68.75
2018-04-24T01:57:02.553Z,69.14
2018-04-24T01:59:30.083Z,69.79
2018-04-24T02:01:57.603Z,69.92
2018-04-24T02:04:25.436Z,69.30
2018-04-24T02:06:52.960Z,69.03
2018-04-24T02:09:20.493Z,68.93
2018-04-24T02:11:48.069Z,68.98
2018-04-24T02:14:15.626Z,69.24
2018-04-24T02:16:43.154Z,69.83
2018-04-24T02:19:11.048Z,70.98
2018-04-24T02:21:38.606Z,69.82
2018-04-24T02:24:06.292Z,70.22
2018-04-24T02:26:33.989Z,70.05
2018-04-24T02:29:01.519Z,70.62
2018-04-24T02:31:29.037Z,70.26
2018-04-24T02:33:56.769Z,69.57
2018-04-24T02:36:24.315Z,70.07
2018-04-24T02:38:51.846Z,70.15
2018-04-24T02:41:19.664Z,70.14
2018-04-24T02:43:47.192Z,70.00
2018-04-24T02:46:14.725Z,69.64
2018-04-24T02:48:42.380Z,69.74
2018-04-24T02:51:09.908Z,70.15
2018-04-24T02:53:37.432Z,69.64
2018-04-24T02:56:05.077Z,69.36
2018-04-24T02:58:32.596Z,69.44
2018-04-24T03:01:00.126Z,69.15
2018-04-24T03:03:27.769Z,69.53
2018-04-24T03:05:55.291Z,69.76
2018-04-24T03:08:22.841Z,69.95
2018-04-24T03:10:50.696Z,70.83
2018-04-24T03:13:18.483Z,72.23
2018-04-24T03:15:46.005Z,71.57
2018-04-24T03:18:13.662Z,71.47
2018-04-24T03:20:41.188Z,71.95
2018-04-24T03:23:08.748Z,71.23
2018-04-24T03:25:36.351Z,72.08
2018-04-24T03:28:03.873Z,71.73
2018-04-24T03:30:31.399Z,70.77
2018-04-24T03:32:59.104Z,70.21
2018-04-24T03:35:26.632Z,71.00
2018-04-24T03:37:54.387Z,72.17
2018-04-24T03:40:22.094Z,71.80
2018-04-24T03:42:49.612Z,71.59
2018-04-24T03:45:17.131Z,71.60
2018-04-24T03:47:44.779Z,70.61
2018-04-24T03:50:12.308Z,70.94
2018-04-24T03:52:39.832Z,70.78
2018-04-24T03:55:07.396Z,70.81
2018-04-24T03:57:34.916Z,70.25
2018-04-24T04:00:02.478Z,70.78
2018-04-24T04:02:30.189Z,70.19
2018-04-24T04:04:57.716Z,69.99
2018-04-24T04:07:25.241Z,69.65
2018-04-24T04:09:53.097Z,69.96
2018-04-24T04:12:20.628Z,70.77
2018-04-24T04:14:48.150Z,70.75
2018-04-24T04:17:27.453Z,70.74
2018-04-24T04:20:06.537Z,70.45
2018-04-24T04:22:46.800Z,70.97
2018-04-24T04:25:14.316Z,71.60
2018-04-24T04:27:41.845Z,71.43
2018-04-24T04:30:09.489Z,71.64
2018-04-24T04:32:37.012Z,71.36
2018-04-24T04:35:05.978Z,71.96
2018-04-24T04:37:33.775Z,72.30
2018-04-24T04:40:01.299Z,70.88
2018-04-24T04:42:29.732Z,70.05
2018-04-24T04:44:57.371Z,71.27
2018-04-24T04:47:24.902Z,72.04
2018-04-24T04:49:52.426Z,70.24
2018-04-24T04:52:20.254Z,70.16
2018-04-24T04:54:47.776Z,70.36
2018-04-24T04:57:15.295Z,69.78
2018-04-24T04:59:42.873Z,69.28
2018-04-24T05:02:10.400Z,69.23
2018-04-24T05:04:37.922Z,69.20
2018-04-24T05:07:05.581Z,69.25
2018-04-24T05:09:33.112Z,69.12
2018-04-24T05:12:00.701Z,68.57
2018-04-24T05:14:28.611Z,70.29
2018-04-24T05:16:56.164Z,69.96
2018-04-24T05:19:23.704Z,68.73
2018-04-24T05:21:51.748Z,69.76
2018-04-24T05:24:19.272Z,69.28
2018-04-24T05:26:46.787Z,68.99
2018-04-24T05:29:14.359Z,69.76
2018-04-24T05:31:42.238Z,70.15
2018-04-24T05:34:09.759Z,71.17
2018-04-24T05:36:37.345Z,70.43
2018-04-24T05:39:04.898Z,70.44
2018-04-24T05:41:32.420Z,69.70
2018-04-24T05:43:59.988Z,69.29
2018-04-24T05:46:27.517Z,69.30
2018-04-24T05:48:55.038Z,70.17
2018-04-24T05:51:22.909Z,69.98
2018-04-24T05:53:50.428Z,68.90
2018-04-24T05:56:17.957Z,68.71
2018-04-24T05:58:45.659Z,68.20
2018-04-24T06:01:13.569Z,67.28
2018-04-24T06:03:41.088Z,65.54
2018-04-24T06:06:08.810Z,66.39
2018-04-24T06:08:36.413Z,66.43
2018-04-24T06:11:03.864Z,65.15
2018-04-24T06:13:31.519Z,63.06
2018-04-24T06:15:59.047Z,62.03
2018-04-24T06:18:26.567Z,61.13
2018-04-24T06:20:54.226Z,61.13
2018-04-24T06:23:21.744Z,59.48
2018-04-24T06:25:49.274Z,59.89
2018-04-24T06:28:16.837Z,59.28
2018-04-24T06:30:44.347Z,59.37
2018-04-24T06:33:11.867Z,58.38
2018-04-24T06:35:40.277Z,56.27
2018-04-24T06:38:07.794Z,55.06
2018-04-24T06:40:35.300Z,55.05
2018-04-24T06:43:02.841Z,54.19
2018-04-24T06:45:30.357Z,52.95
2018-04-24T06:47:57.876Z,51.93
2018-04-24T06:50:25.509Z,51.28
2018-04-24T06:52:53.025Z,51.54
2018-04-24T06:55:20.549Z,51.52
2018-04-24T06:57:48.508Z,50.37
2018-04-24T07:00:16.015Z,48.48
2018-04-24T07:02:43.530Z,49.58
2018-04-24T07:05:11.173Z,48.65
2018-04-24T07:07:38.687Z,48.41
2018-04-24T07:10:06.206Z,49.82
2018-04-24T07:12:34.055Z,49.07
2018-04-24T07:15:01.580Z,48.70
2018-04-24T07:17:29.440Z,48.82
2018-04-24T07:19:57.080Z,46.76
2018-04-24T07:22:24.605Z,46.26
2018-04-24T07:24:52.119Z,46.39
2018-04-24T07:27:19.895Z,45.74
2018-04-24T07:29:47.766Z,44.75
2018-04-24T07:32:15.280Z,44.85
2018-04-24T07:34:42.929Z,44.91
2018-04-24T07:37:10.437Z,42.83
2018-04-24T07:39:37.952Z,41.53
2018-04-24T07:42:05.620Z,41.11
2018-04-24T07:44:33.137Z,39.47
2018-04-24T07:47:00.661Z,39.84
2018-04-24T07:49:28.221Z,38.87
2018-04-24T07:51:55.736Z,38.17
2018-04-24T07:54:23.273Z,38.65
2018-04-24T07:56:51.042Z,38.70
2018-04-24T07:59:18.641Z,38.93
2018-04-24T08:01:46.104Z,40.88
2018-04-24T08:04:13.743Z,40.26
2018-04-24T08:06:41.260Z,41.44
2018-04-24T08:09:08.831Z,41.79
2018-04-24T08:11:36.398Z,41.56
2018-04-24T08:14:03.911Z,41.67
2018-04-24T08:16:31.536Z,41.18
2018-04-24T08:18:59.040Z,41.47
2018-04-24T08:21:33.273Z,42.11
2018-04-24T08:24:00.832Z,41.97
2018-04-24T08:26:28.348Z,42.24
2018-04-24T08:28:55.864Z,41.69
2018-04-24T08:31:23.408Z,41.04
2018-04-24T08:33:50.918Z,41.98
2018-04-24T08:36:18.440Z,41.93
2018-04-24T08:38:46.139Z,39.73
2018-04-24T08:41:13.667Z,39.36
2018-04-24T08:43:41.193Z,38.10
2018-04-24T08:46:08.745Z,36.67
2018-04-24T08:48:36.261Z,35.30
2018-04-24T08:51:03.785Z,35.78
2018-04-24T08:53:31.433Z,36.30
2018-04-24T08:55:58.948Z,37.50
2018-04-24T08:58:26.473Z,37.33
2018-04-24T09:00:54.023Z,36.78
2018-04-24T09:03:21.540Z,30.33
2018-04-24T09:05:49.061Z,28.31
2018-04-24T09:08:17.700Z,29.60
2018-04-24T09:10:45.219Z,28.26
2018-04-24T09:13:13.551Z,27.93
2018-04-24T09:15:41.182Z,26.35
2018-04-24T09:18:08.700Z,25.74
2018-04-24T09:20:36.216Z,27.20
2018-04-24T09:23:03.852Z,28.53
2018-04-24T09:25:31.366Z,29.94
2018-04-24T09:27:58.912Z,29.32
2018-04-24T09:30:26.636Z,27.26
2018-04-24T09:32:54.215Z,24.27
2018-04-24T09:35:29.594Z,21.61
2018-04-24T09:37:57.109Z,20.91
2018-04-24T09:40:24.628Z,20.37
2018-04-24T09:42:52.485Z,23.62
2018-04-24T09:45:19.999Z,22.11
2018-04-24T09:47:47.505Z,22.04
2018-04-24T09:50:15.367Z,23.80
2018-04-24T09:52:43.005Z,22.83
2018-04-24T09:55:13.778Z,21.74
2018-04-24T09:57:41.487Z,21.79
2018-04-24T10:00:09.812Z,20.79
2018-04-24T10:02:37.533Z,20.67
2018-04-24T10:05:05.097Z,19.74
2018-04-24T10:07:32.616Z,17.63
2018-04-24T10:10:00.574Z,17.57
2018-04-24T10:12:28.249Z,19.42
2018-04-24T10:14:55.763Z,17.80
2018-04-24T10:17:23.267Z,18.45
2018-04-24T10:19:50.834Z,17.35
2018-04-24T10:22:18.826Z,17.69
2018-04-24T10:24:46.351Z,17.95
2018-04-24T10:27:14.013Z,18.71
2018-04-24T10:29:41.599Z,17.42
2018-04-24T10:32:09.112Z,17.24
2018-04-24T10:34:36.950Z,20.86
2018-04-24T10:37:04.460Z,20.59
2018-04-24T10:39:31.989Z,19.40
2018-04-24T10:41:59.632Z,19.29
2018-04-24T10:44:27.149Z,18.70
2018-04-24T10:46:54.671Z,16.24
2018-04-24T10:49:22.225Z,18.60
2018-04-24T10:51:49.948Z,18.50
2018-04-24T10:54:17.422Z,16.87
2018-04-24T10:56:45.163Z,16.78
2018-04-24T10:59:12.671Z,15.43
2018-04-24T11:01:40.184Z,14.16
2018-04-24T11:04:07.917Z,16.37
2018-04-24T11:06:35.510Z,14.73
2018-04-24T11:09:03.030Z,14.07
2018-04-24T11:11:30.984Z,14.58
2018-04-24T11:13:58.501Z,14.89
2018-04-24T11:16:26.134Z,15.10
2018-04-24T11:18:53.852Z,15.33
2018-04-24T11:21:21.454Z,13.83
2018-04-24T11:23:48.952Z,13.75
2018-04-24T11:26:16.681Z,14.50
2018-04-24T11:28:44.397Z,13.02
2018-04-24T11:31:11.969Z,15.39
2018-04-24T11:33:39.616Z,15.27
2018-04-24T11:36:07.132Z,13.47
2018-04-24T11:38:34.645Z,15.36
2018-04-24T11:41:02.233Z,15.71
2018-04-24T11:43:29.773Z,16.20
2018-04-24T11:45:57.296Z,16.54
2018-04-24T11:48:24.866Z,17.12
2018-04-24T11:50:52.385Z,18.36
2018-04-24T11:53:19.892Z,18.61
2018-04-24T11:55:47.444Z,17.62
2018-04-24T11:58:14.980Z,18.91
2018-04-24T12:00:42.487Z,19.87
2018-04-24T12:03:10.135Z,19.37
2018-04-24T12:05:37.693Z,17.95
2018-04-24T12:08:05.263Z,18.83
2018-04-24T12:10:32.812Z,18.75
2018-04-24T12:13:00.334Z,18.44
2018-04-24T12:15:28.030Z,17.10
2018-04-24T12:17:55.608Z,19.11
2018-04-24T12:20:23.210Z,21.39
2018-04-24T12:22:50.781Z,22.85
2018-04-24T12:25:18.348Z,24.94
2018-04-24T12:27:46.156Z,25.98
2018-04-24T12:30:13.817Z,25.46
2018-04-24T12:32:41.482Z,25.93
2018-04-24T12:35:09.048Z,24.39
2018-04-24T12:37:36.600Z,23.97
2018-04-24T12:40:04.408Z,24.68
2018-04-24T12:42:32.038Z,24.69
2018-04-24T12:44:59.692Z,25.49
2018-04-24T12:47:27.541Z,26.20
2018-04-24T12:49:55.092Z,27.28
2018-04-24T12:52:22.750Z,25.68
2018-04-24T12:54:50.607Z,24.50
2018-04-24T12:57:18.597Z,22.59
2018-04-24T12:59:46.184Z,21.30
2018-04-24T13:02:13.887Z,20.01
2018-04-24T13:04:41.617Z,19.42
2018-04-24T13:07:09.212Z,18.26
2018-04-24T13:09:36.788Z,17.52
2018-04-24T13:12:04.432Z,16.93
2018-04-24T13:14:32.060Z,16.66
2018-04-24T13:16:59.971Z,18.05
2018-04-24T13:19:27.619Z,18.38
2018-04-24T13:21:55.196Z,18.11
2018-04-24T13:24:22.944Z,18.08
2018-04-24T13:26:50.530Z,17.74
2018-04-24T13:29:18.187Z,16.08
2018-04-24T13:31:46.071Z,17.86
2018-04-24T13:34:14.532Z,18.43
2018-04-24T13:36:42.211Z,19.25
2018-04-24T13:39:09.890Z,19.19
2018-04-24T13:41:37.609Z,18.97
2018-04-24T13:44:05.327Z,17.94
2018-04-24T13:46:33.293Z,18.05
2018-04-24T13:49:01.061Z,17.14
2018-04-24T13:51:28.856Z,16.01
2018-04-24T13:53:56.668Z,18.68
2018-04-24T13:56:24.387Z,19.61
2018-04-24T13:58:52.363Z,17.19
2018-04-24T14:01:20.175Z,18.29
2018-04-24T14:03:47.845Z,16.81
2018-04-24T14:06:15.585Z,16.44
2018-04-24T14:08:43.445Z,16.04
2018-04-24T14:11:11.027Z,15.41
2018-04-24T14:13:38.719Z,14.98
2018-04-24T14:16:06.576Z,15.35
2018-04-24T14:18:34.409Z,16.70
2018-04-24T14:21:02.246Z,17.10
2018-04-24T14:23:30.332Z,15.68
2018-04-24T14:25:58.102Z,16.75
2018-04-24T14:28:25.892Z,16.92
2018-04-24T14:30:53.817Z,17.05
2018-04-24T14:33:22.716Z,17.14
2018-04-24T14:35:50.374Z,18.03
2018-04-24T14:38:18.106Z,17.01
2018-04-24T14:40:45.762Z,17.77
2018-04-24T14:43:13.496Z,18.70
2018-04-24T14:45:41.716Z,17.70
2018-04-24T14:48:09.457Z,18.57
2018-04-24T14:50:38.625Z,17.59
2018-04-24T14:53:06.379Z,17.93
2018-04-24T14:55:34.071Z,18.98
2018-04-24T14:58:01.757Z,18.81
2018-04-24T15:00:29.560Z,17.71
2018-04-24T15:02:57.194Z,18.29
2018-04-24T15:05:24.799Z,18.70
2018-04-24T15:07:52.758Z,18.82
2018-04-24T15:10:20.468Z,18.70
2018-04-24T15:12:48.185Z,18.88
2018-04-24T15:15:15.775Z,19.29
2018-04-24T15:17:43.308Z,21.41
2018-04-24T15:20:10.920Z,20.55
2018-04-24T15:22:38.645Z,20.38
2018-04-24T15:25:06.414Z,19.57
2018-04-24T15:27:34.200Z,19.62
2018-04-24T15:30:02.560Z,19.81
2018-04-24T15:32:30.559Z,20.64
2018-04-24T15:34:58.273Z,21.02
2018-04-24T15:37:26.073Z,19.61
2018-04-24T15:39:53.843Z,19.86
2018-04-24T15:42:21.457Z,20.22
2018-04-24T15:44:49.199Z,20.04
2018-04-24T15:47:16.915Z,20.14
2018-04-24T15:49:44.607Z,21.14
2018-04-24T15:52:12.423Z,21.06
2018-04-24T15:54:40.309Z,21.21
2018-04-24T15:57:08.060Z,20.65
2018-04-24T15:59:35.978Z,19.53
2018-04-24T16:02:03.724Z,19.44
2018-04-24T16:04:31.340Z,20.15
2018-04-24T16:06:59.193Z,21.85
2018-04-24T16:09:26.835Z,23.23
2018-04-24T16:11:54.508Z,23.97
2018-04-24T16:14:22.213Z,24.30
2018-04-24T16:16:49.827Z,25.59
2018-04-24T16:19:17.416Z,25.58
2018-04-24T16:21:45.203Z,26.41
2018-04-24T16:24:12.894Z,26.32
2018-04-24T16:26:40.519Z,26.29
2018-04-24T16:29:08.424Z,26.85
2018-04-24T16:31:36.131Z,26.87
2018-04-24T16:34:03.905Z,26.79
2018-04-24T16:36:32.688Z,26.87
2018-04-24T16:39:00.402Z,27.31
2018-04-24T16:41:28.151Z,27.08
2018-04-24T16:43:56.028Z,27.58
2018-04-24T16:46:23.771Z,27.54
2018-04-24T16:48:51.523Z,27.86
2018-04-24T16:51:19.302Z,27.40
2018-04-24T16:53:47.007Z,27.62
2018-04-24T16:56:14.837Z,27.31
2018-04-24T16:58:42.840Z,27.15
2018-04-24T17:01:10.554Z,27.91
2018-04-24T17:03:38.290Z,28.41
2018-04-24T17:06:06.660Z,28.15
2018-04-24T17:08:34.538Z,27.76
2018-04-24T17:11:02.257Z,28.04
2018-04-24T17:13:31.160Z,28.68
2018-04-24T17:15:58.909Z,31.79
2018-04-24T17:18:26.596Z,32.24
2018-04-24T17:20:54.407Z,32.79
2018-04-24T17:23:22.379Z,33.00
2018-04-24T17:25:50.107Z,33.01
2018-04-24T17:28:17.873Z,33.00
2018-04-24T17:30:46.324Z,33.51
2018-04-24T17:33:14.051Z,34.14
2018-04-24T17:35:42.081Z,34.69
2018-04-24T17:38:11.029Z,34.43
2018-04-24T17:40:38.888Z,34.71
2018-04-24T17:43:06.700Z,35.38
2018-04-24T17:45:34.338Z,35.58
2018-04-24T17:48:02.069Z,35.97
2018-04-24T17:50:29.904Z,35.96
2018-04-24T17:52:57.581Z,36.12
2018-04-24T17:55:25.199Z,36.67
2018-04-24T17:57:52.985Z,36.44
2018-04-24T18:00:20.676Z,36.98
2018-04-24T18:02:48.365Z,37.13
2018-04-24T18:05:16.204Z,37.27
2018-04-24T18:07:43.831Z,38.21
2018-04-24T18:10:11.563Z,37.85
2018-04-24T18:12:39.359Z,38.45
2018-04-24T18:15:07.094Z,38.64
2018-04-24T18:17:34.797Z,38.78
2018-04-24T18:20:02.963Z,39.12
2018-04-24T18:22:30.673Z,39.07
2018-04-24T18:24:58.354Z,39.29
2018-04-24T18:27:26.339Z,40.24
2018-04-24T18:29:54.170Z,40.58
2018-04-24T18:32:21.875Z,41.15
2018-04-24T18:34:49.621Z,41.26
2018-04-24T18:37:17.375Z,42.16
2018-04-24T18:39:45.105Z,42.03
2018-04-24T18:42:13.328Z,41.89
2018-04-24T18:44:41.101Z,42.37
2018-04-24T18:47:09.947Z,42.69
2018-04-24T18:49:38.066Z,43.18
2018-04-24T18:52:05.817Z,43.28
2018-04-24T18:54:33.592Z,43.48
2018-04-24T18:57:01.729Z,43.89
2018-04-24T18:59:29.413Z,43.89
2018-04-24T19:01:57.155Z,43.78
2018-04-24T19:04:25.322Z,43.99
2018-04-24T19:06:53.059Z,44.23
2018-04-24T19:09:21.290Z,44.63
2018-04-24T19:11:49.153Z,45.13
2018-04-24T19:14:22.431Z,45.13
2018-04-24T19:16:50.345Z,45.00
2018-04-24T19:19:23.849Z,45.18
2018-04-24T19:21:51.780Z,45.38
2018-04-24T19:24:24.934Z,45.66
2018-04-24T19:26:52.821Z,45.98
2018-04-24T19:29:20.576Z,46.35
2018-04-24T19:31:54.177Z,47.08
2018-04-24T19:34:21.962Z,46.95
2018-04-24T19:36:49.712Z,47.36
2018-04-24T19:39:23.586Z,47.37
2018-04-24T19:41:51.412Z,47.88
2018-04-24T19:44:20.067Z,47.97
2018-04-24T19:46:49.349Z,47.64
2018-04-24T19:49:22.588Z,47.99
2018-04-24T19:51:50.490Z,48.38
2018-04-24T19:54:18.277Z,48.75
2018-04-24T19:56:46.129Z,48.68
2018-04-24T19:59:14.439Z,48.69
2018-04-24T20:01:42.198Z,48.99
2018-04-24T20:04:10.045Z,49.17
2018-04-24T20:06:37.937Z,49.34
2018-04-24T20:09:07.520Z,49.19
2018-04-24T20:11:35.279Z,49.35
2018-04-24T20:14:03.325Z,49.30
2018-04-24T20:16:31.930Z,49.38
2018-04-24T20:19:00.073Z,49.60
2018-04-24T20:21:27.874Z,50.09
2018-04-24T20:23:55.670Z,50.06
2018-04-24T20:26:23.960Z,50.52
2018-04-24T20:28:51.930Z,50.46
2018-04-24T20:31:19.665Z,50.39
2018-04-24T20:33:48.372Z,50.79
2018-04-24T20:36:16.160Z,50.54
2018-04-24T20:38:43.970Z,51.03
2018-04-24T20:41:11.725Z,51.29
2018-04-24T20:43:39.735Z,51.32
2018-04-24T20:46:07.487Z,51.15
2018-04-24T20:48:35.225Z,52.01
2018-04-24T20:51:03.417Z,52.23
2018-04-24T20:53:31.383Z,52.44
2018-04-24T20:55:59.135Z,52.21
2018-04-24T20:58:27.162Z,52.94
2018-04-24T21:00:55.834Z,53.38
2018-04-24T21:03:23.792Z,53.40
2018-04-24T21:05:51.586Z,53.88
2018-04-24T21:08:19.308Z,53.79
2018-04-24T21:10:47.104Z,54.42
2018-04-24T21:13:14.916Z,54.58
2018-04-24T21:15:42.640Z,54.81
2018-04-24T21:18:10.344Z,54.83
2018-04-24T21:20:38.080Z,54.92
2018-04-24T21:23:05.929Z,55.33
2018-04-24T21:25:34.569Z,55.34
2018-04-24T21:28:03.569Z,55.67
2018-04-24T21:30:32.207Z,55.96
2018-04-24T21:32:59.927Z,55.70
2018-04-24T21:35:27.688Z,57.00
2018-04-24T21:37:55.233Z,56.78
2018-04-24T21:40:23.716Z,56.59
2018-04-24T21:42:51.422Z,57.19
2018-04-24T21:45:19.812Z,56.72
2018-04-24T21:47:47.388Z,56.99
2018-04-24T21:50:14.956Z,56.93
2018-04-24T21:52:42.528Z,56.71
2018-04-24T21:55:10.053Z,56.38
2018-04-24T21:57:37.792Z,56.50
2018-04-24T22:00:05.832Z,56.14
2018-04-24T22:02:33.392Z,56.63
2018-04-24T22:05:00.945Z,57.09
2018-04-24T22:07:28.465Z,57.29
2018-04-24T22:09:55.993Z,57.52
2018-04-24T22:12:24.041Z,57.85
2018-04-24T22:14:51.602Z,57.52
2018-04-24T22:17:19.599Z,57.82
2018-04-24T22:19:47.160Z,57.82
2018-04-24T22:22:16.379Z,58.03
2018-04-24T22:24:43.976Z,57.99
2018-04-24T22:27:11.961Z,58.03
2018-04-24T22:29:40.419Z,58.09
2018-04-24T22:32:07.960Z,57.93
2018-04-24T22:34:36.837Z,58.68
2018-04-24T22:37:04.411Z,59.01
2018-04-24T22:39:31.957Z,59.68
2018-04-24T22:41:59.792Z,60.05
2018-04-24T22:44:27.320Z,59.97
2018-04-24T22:46:54.847Z,60.35
2018-04-24T22:49:22.700Z,60.09
2018-04-24T22:51:50.225Z,60.49
2018-04-24T22:54:17.761Z,60.38
2018-04-24T22:56:45.340Z,60.22
2018-04-24T22:59:12.900Z,60.62
2018-04-24T23:01:40.423Z,59.76
2018-04-24T23:04:08.008Z,59.58
2018-04-24T23:06:35.533Z,59.65
2018-04-24T23:09:03.068Z,60.05
2018-04-24T23:11:42.457Z,59.87
2018-04-24T23:14:21.516Z,59.76
2018-04-24T23:17:00.913Z,60.26
2018-04-24T23:19:40.084Z,60.69
2018-04-24T23:22:07.417Z,60.32
2018-04-24T23:24:34.940Z,60.83
2018-04-24T23:27:02.460Z,61.91
2018-04-24T23:29:30.263Z,61.26
2018-04-24T23:31:57.789Z,61.87
2018-04-24T23:34:26.180Z,61.32
2018-04-24T23:36:53.741Z,60.92
2018-04-24T23:39:21.270Z,61.28
2018-04-24T23:41:48.817Z,61.46
2018-04-24T23:44:16.548Z,60.92
2018-04-24T23:46:44.069Z,60.85
2018-04-24T23:49:11.613Z,61.12
2018-04-24T23:51:39.249Z,61.05
2018-04-24T23:54:06.767Z,61.92
2018-04-24T23:56:35.112Z,61.46
2018-04-24T23:59:02.905Z,62.75
